Arcola, Indiana
Current Conditions -  °F | °C
As of 8:54 PM on Monday 24 Nov 2014 (Local Time) from KFWA Reporting Station
Overcast Overcast  
Wind Chill: 21°   Ceiling: 2800
Heat Index: 34°   Visibility: 10mi
Dew Point: 27°   Wind: 29mph
Humidity: 75%   Direction: 240°WSW
Pressure: 29.76"   Gusts: 39mph
Location:  41.1°N, 85.29°W
Report Text: KFWA 250154Z 24025G34KT 10SM OVC028 01/M03 A2976 RMK AO2 PK WND 24039/0117 SLP081 T00111028
Loading
Personal Weather Stations






























Interactive Weather Map New forecast layout! Learn more

10-Day Weather Forecast

Advertisements
Track Severe Weather on mobile